createdAt,value
2018-06-02T00:01:04.441Z,451.50
2018-06-02T00:03:32.025Z,449.83
2018-06-02T00:05:59.641Z,482.43
2018-06-02T00:08:27.214Z,476.73
2018-06-02T00:10:54.841Z,465.10
2018-06-02T00:13:23.198Z,460.23
2018-06-02T00:15:50.826Z,474.93
2018-06-02T00:18:18.440Z,444.97
2018-06-02T00:20:46.783Z,459.17
2018-06-02T00:23:14.392Z,447.67
2018-06-02T00:25:42.745Z,434.90
2018-06-02T00:28:10.521Z,459.27
2018-06-02T00:30:38.867Z,472.23
2018-06-02T00:33:06.481Z,480.70
2018-06-02T00:35:34.060Z,507.87
2018-06-02T00:38:01.673Z,517.70
2018-06-02T00:40:29.299Z,499.63
2018-06-02T00:42:56.886Z,522.30
2018-06-02T00:45:24.509Z,515.70
2018-06-02T00:47:52.140Z,519.27
2018-06-02T00:50:19.721Z,491.60
2018-06-02T00:52:47.307Z,511.00
2018-06-02T00:55:14.932Z,521.60
2018-06-02T00:57:42.511Z,523.37
2018-06-02T01:00:10.955Z,528.77
2018-06-02T01:02:38.575Z,528.73
2018-06-02T01:05:06.195Z,540.03
2018-06-02T01:07:34.541Z,539.50
2018-06-02T01:10:02.171Z,514.57
2018-06-02T01:12:29.746Z,528.10
2018-06-02T01:14:57.429Z,534.37
2018-06-02T01:17:25.005Z,554.60
2018-06-02T01:19:52.585Z,544.87
2018-06-02T01:22:20.196Z,577.03
2018-06-02T01:24:47.774Z,574.77
2018-06-02T01:27:15.398Z,470.90
2018-06-02T01:29:42.984Z,375.87
2018-06-02T01:32:10.617Z,318.37
2018-06-02T01:34:38.189Z,279.47
2018-06-02T01:37:05.769Z,249.20
2018-06-02T01:39:33.394Z,261.73
2018-06-02T01:42:00.986Z,243.17
2018-06-02T01:44:28.609Z,740.87
2018-06-02T01:46:56.207Z,732.27
2018-06-02T01:49:23.833Z,748.43
2018-06-02T01:51:51.404Z,710.20
2018-06-02T01:54:19.026Z,717.17
2018-06-02T01:56:46.614Z,693.60
2018-06-02T01:59:14.230Z,728.60
2018-06-02T02:01:41.861Z,705.87
2018-06-02T02:04:09.479Z,725.53
2018-06-02T02:06:37.091Z,714.27
2018-06-02T02:09:06.502Z,719.20
2018-06-02T02:11:34.126Z,739.03
2018-06-02T02:14:01.710Z,748.90
2018-06-02T02:16:29.330Z,749.23
2018-06-02T02:18:57.708Z,708.13
2018-06-02T02:21:26.054Z,730.10
2018-06-02T02:23:53.685Z,737.33
2018-06-02T02:26:21.262Z,740.87
2018-06-02T02:28:48.838Z,740.30
2018-06-02T02:31:16.458Z,718.83
2018-06-02T02:33:44.145Z,738.57
2018-06-02T02:36:11.765Z,721.83
2018-06-02T02:38:39.357Z,686.10
2018-06-02T02:41:07.013Z,670.53
2018-06-02T02:43:34.647Z,662.97
2018-06-02T02:46:02.234Z,650.67
2018-06-02T02:48:29.812Z,653.23
2018-06-02T02:50:57.472Z,627.87
2018-06-02T02:53:25.054Z,645.87
2018-06-02T02:55:52.670Z,646.33
2018-06-02T02:58:20.306Z,663.10
2018-06-02T03:00:47.887Z,663.40
2018-06-02T03:03:15.465Z,644.80
2018-06-02T03:05:43.096Z,691.97
2018-06-02T03:08:11.445Z,681.83
2018-06-02T03:10:39.873Z,676.63
2018-06-02T03:13:07.494Z,654.30
2018-06-02T03:15:35.078Z,626.13
2018-06-02T03:18:03.470Z,626.03
2018-06-02T03:20:31.044Z,612.77
2018-06-02T03:22:58.667Z,629.60
2018-06-02T03:25:26.287Z,624.70
2018-06-02T03:27:53.864Z,592.30
2018-06-02T03:30:21.485Z,604.23
2018-06-02T03:32:49.071Z,599.10
2018-06-02T03:35:16.701Z,606.33
2018-06-02T03:37:45.045Z,629.53
2018-06-02T03:40:12.641Z,615.27
2018-06-02T03:42:40.261Z,654.37
2018-06-02T03:45:07.863Z,686.40
2018-06-02T03:47:35.480Z,659.50
2018-06-02T03:50:03.115Z,718.97
2018-06-02T03:52:30.733Z,737.47
2018-06-02T03:54:59.073Z,732.87
2018-06-02T03:57:26.691Z,696.37
2018-06-02T03:59:54.277Z,721.83
2018-06-02T04:02:21.904Z,704.87
2018-06-02T04:04:49.509Z,724.40
2018-06-02T04:07:17.094Z,737.93
2018-06-02T04:09:44.711Z,741.80
2018-06-02T04:12:12.294Z,736.93
2018-06-02T04:14:39.918Z,715.00
2018-06-02T04:17:07.506Z,669.03
2018-06-02T04:19:35.121Z,664.67
2018-06-02T04:22:02.704Z,643.20
2018-06-02T04:24:30.332Z,619.63
2018-06-02T04:26:57.918Z,539.53
2018-06-02T04:29:26.266Z,569.47
2018-06-02T04:31:53.899Z,561.30
2018-06-02T04:34:21.500Z,568.80
2018-06-02T04:36:49.215Z,615.57
2018-06-02T04:39:16.802Z,619.73
2018-06-02T04:41:44.421Z,575.23
2018-06-02T04:44:12.013Z,565.27
2018-06-02T04:46:39.632Z,586.27
2018-06-02T04:49:07.210Z,555.17
2018-06-02T04:51:34.808Z,527.30
2018-06-02T04:54:02.482Z,545.83
2018-06-02T04:56:30.048Z,515.07
2018-06-02T04:58:57.669Z,498.20
2018-06-02T05:01:25.250Z,513.67
2018-06-02T05:03:52.876Z,509.97
2018-06-02T05:06:20.457Z,486.07
2018-06-02T05:08:48.069Z,502.33
2018-06-02T05:11:16.430Z,514.87
2018-06-02T05:13:44.134Z,518.30
2018-06-02T05:16:11.761Z,492.70
2018-06-02T05:18:39.353Z,485.03
2018-06-02T05:21:06.981Z,502.40
2018-06-02T05:23:34.580Z,481.17
2018-06-02T05:26:02.170Z,454.77
2018-06-02T05:28:29.788Z,422.90
2018-06-02T05:30:57.416Z,397.47
2018-06-02T05:33:25.042Z,407.17
2018-06-02T05:35:52.615Z,425.47
2018-06-02T05:38:20.228Z,458.17
2018-06-02T05:40:48.577Z,441.80
2018-06-02T05:43:16.952Z,437.70
2018-06-02T05:45:44.576Z,466.60
2018-06-02T05:48:12.161Z,440.50
2018-06-02T05:50:39.778Z,405.73
2018-06-02T05:53:08.126Z,409.87
2018-06-02T05:55:35.742Z,432.63
2018-06-02T05:58:03.321Z,460.80
2018-06-02T06:00:30.941Z,426.90
2018-06-02T06:02:58.565Z,458.30
2018-06-02T06:05:26.147Z,419.97
2018-06-02T06:07:53.765Z,471.73
2018-06-02T06:10:21.348Z,441.47
2018-06-02T06:12:48.973Z,415.87
2018-06-02T06:15:16.563Z,436.27
2018-06-02T06:17:44.185Z,447.77
2018-06-02T06:20:11.760Z,467.80
2018-06-02T06:22:41.205Z,422.97
2018-06-02T06:25:08.831Z,395.70
2018-06-02T06:27:36.410Z,391.70
2018-06-02T06:30:04.026Z,394.20
2018-06-02T06:32:32.362Z,408.33
2018-06-02T06:34:59.935Z,415.07
2018-06-02T06:37:27.547Z,405.33
2018-06-02T06:39:55.164Z,410.17
2018-06-02T06:42:22.745Z,399.07
2018-06-02T06:44:51.125Z,372.23
2018-06-02T06:47:19.463Z,393.00
2018-06-02T06:49:47.288Z,394.03
2018-06-02T06:52:14.855Z,405.63
2018-06-02T06:54:42.452Z,428.33
2018-06-02T06:57:10.065Z,419.27
2018-06-02T06:59:37.679Z,403.13
2018-06-02T07:02:05.259Z,408.87
2018-06-02T07:04:33.660Z,407.37
2018-06-02T07:07:02.008Z,402.67
2018-06-02T07:09:29.571Z,367.97
2018-06-02T07:11:57.228Z,365.10
2018-06-02T07:14:24.804Z,353.67
2018-06-02T07:16:52.385Z,401.90
2018-06-02T07:19:19.956Z,347.80
2018-06-02T07:21:47.584Z,344.83
2018-06-02T07:24:15.196Z,261.70
2018-06-02T07:26:42.773Z,278.77
2018-06-02T07:29:10.390Z,261.03
2018-06-02T07:31:38.729Z,284.40
2018-06-02T07:34:06.339Z,246.37
2018-06-02T07:36:33.908Z,252.70
2018-06-02T07:39:01.524Z,287.10
2018-06-02T07:41:29.096Z,287.07
2018-06-02T07:43:57.473Z,303.77
2018-06-02T07:46:25.047Z,251.33
2018-06-02T07:48:53.424Z,304.93
2018-06-02T07:51:21.770Z,297.67
2018-06-02T07:53:49.380Z,302.90
2018-06-02T07:56:16.956Z,225.13
2018-06-02T07:58:44.773Z,218.30
2018-06-02T08:01:12.347Z,233.23
2018-06-02T08:03:40.689Z,256.00
2018-06-02T08:06:08.299Z,287.93
2018-06-02T08:08:35.932Z,303.10
2018-06-02T08:11:03.547Z,312.47
2018-06-02T08:13:31.124Z,254.17
2018-06-02T08:15:58.741Z,254.73
2018-06-02T08:18:26.313Z,253.33
2018-06-02T08:20:53.894Z,294.20
2018-06-02T08:23:21.605Z,287.90
2018-06-02T08:25:49.204Z,336.03
2018-06-02T08:28:16.786Z,373.50
2018-06-02T08:30:44.441Z,375.63
2018-06-02T08:33:12.016Z,328.40
2018-06-02T08:35:39.599Z,329.20
2018-06-02T08:38:07.235Z,346.33
2018-06-02T08:40:34.811Z,338.23
2018-06-02T08:43:02.430Z,345.43
2018-06-02T08:45:30.006Z,357.73
2018-06-02T08:47:57.575Z,344.63
2018-06-02T08:50:25.205Z,349.10
2018-06-02T08:52:52.774Z,382.67
2018-06-02T08:55:20.345Z,357.27
2018-06-02T08:57:47.952Z,324.43
2018-06-02T09:00:15.569Z,366.00
2018-06-02T09:02:43.146Z,338.47
2018-06-02T09:05:10.766Z,303.37
2018-06-02T09:07:39.109Z,339.40
2018-06-02T09:10:06.715Z,333.30
2018-06-02T09:12:34.337Z,257.60
2018-06-02T09:15:01.953Z,324.33
2018-06-02T09:17:29.530Z,340.63
2018-06-02T09:19:57.397Z,334.97
2018-06-02T09:22:24.967Z,281.53
2018-06-02T09:24:52.577Z,313.83
2018-06-02T09:27:20.907Z,313.03
2018-06-02T09:29:48.514Z,296.03
2018-06-02T09:32:16.149Z,263.90
2018-06-02T09:34:43.774Z,249.27
2018-06-02T09:37:11.349Z,288.57
2018-06-02T09:39:38.928Z,286.83
2018-06-02T09:42:06.553Z,260.90
2018-06-02T09:44:34.141Z,270.90
2018-06-02T09:47:01.718Z,258.03
2018-06-02T09:49:29.346Z,263.23
2018-06-02T09:51:56.920Z,267.70
2018-06-02T09:54:24.542Z,229.40
2018-06-02T09:56:52.120Z,240.77
2018-06-02T09:59:19.735Z,231.03
2018-06-02T10:01:47.309Z,276.10
2018-06-02T10:04:14.915Z,286.70
2018-06-02T10:06:42.492Z,237.37
2018-06-02T10:09:10.109Z,258.33
2018-06-02T10:11:37.679Z,252.37
2018-06-02T10:14:05.306Z,274.87
2018-06-02T10:16:32.927Z,254.53
2018-06-02T10:19:00.543Z,275.10
2018-06-02T10:21:28.877Z,309.13
2018-06-02T10:23:56.569Z,260.87
2018-06-02T10:26:24.144Z,321.13
2018-06-02T10:28:52.815Z,284.87
2018-06-02T10:31:20.396Z,318.23
2018-06-02T10:33:48.797Z,233.33
2018-06-02T10:36:16.373Z,328.10
2018-06-02T10:38:43.994Z,331.23
2018-06-02T10:41:12.337Z,311.60
2018-06-02T10:43:39.940Z,334.27
2018-06-02T10:46:07.548Z,329.27
2018-06-02T10:48:35.132Z,329.93
2018-06-02T10:51:02.740Z,315.40
2018-06-02T10:53:30.357Z,326.90
2018-06-02T10:55:57.986Z,319.57
2018-06-02T10:58:25.606Z,335.97
2018-06-02T11:00:53.152Z,333.60
2018-06-02T11:03:20.762Z,332.67
2018-06-02T11:05:48.386Z,317.93
2018-06-02T11:08:16.758Z,343.17
2018-06-02T11:10:45.097Z,342.50
2018-06-02T11:13:12.711Z,326.27
2018-06-02T11:15:41.089Z,337.93
2018-06-02T11:18:09.432Z,354.07
2018-06-02T11:20:37.042Z,298.80
2018-06-02T11:23:04.662Z,314.27
2018-06-02T11:25:32.232Z,369.90
2018-06-02T11:27:59.860Z,343.07
2018-06-02T11:30:27.435Z,393.47
2018-06-02T11:32:55.093Z,433.07
2018-06-02T11:35:22.675Z,523.90
2018-06-02T11:37:50.301Z,284.40
2018-06-02T11:40:17.923Z,275.33
2018-06-02T11:42:45.505Z,323.33
2018-06-02T11:45:13.092Z,363.67
2018-06-02T11:47:40.715Z,374.47
2018-06-02T11:50:08.326Z,358.10
2018-06-02T11:52:35.935Z,373.33
2018-06-02T11:55:03.576Z,337.90
2018-06-02T11:57:31.193Z,363.43
2018-06-02T11:59:58.916Z,360.97
2018-06-02T12:02:27.264Z,355.33
2018-06-02T12:04:54.871Z,323.90
2018-06-02T12:07:22.452Z,334.67
2018-06-02T12:09:50.020Z,326.00
2018-06-02T12:12:17.636Z,334.87
2018-06-02T12:14:45.208Z,273.63
2018-06-02T12:17:12.825Z,268.23
2018-06-02T12:19:40.504Z,288.50
2018-06-02T12:22:08.097Z,265.50
2018-06-02T12:24:35.675Z,278.07
2018-06-02T12:27:03.396Z,272.47
2018-06-02T12:29:30.975Z,237.80
2018-06-02T12:31:59.757Z,221.03
2018-06-02T12:34:27.375Z,209.53
2018-06-02T12:36:54.971Z,231.30
2018-06-02T12:39:22.585Z,227.43
2018-06-02T12:41:50.160Z,240.60
2018-06-02T12:44:17.768Z,232.93
2018-06-02T12:46:45.388Z,253.80
2018-06-02T12:49:12.980Z,194.70
2018-06-02T12:51:41.375Z,211.43
2018-06-02T12:54:08.958Z,205.73
2018-06-02T12:56:36.649Z,204.03
2018-06-02T12:59:04.259Z,199.97
2018-06-02T13:01:31.823Z,215.10
2018-06-02T13:03:59.443Z,189.10
2018-06-02T13:06:27.104Z,170.97
2018-06-02T13:08:54.687Z,175.03
2018-06-02T13:11:22.300Z,167.87
2018-06-02T13:13:49.876Z,184.67
2018-06-02T13:16:17.484Z,139.37
2018-06-02T13:18:45.056Z,145.00
2018-06-02T13:21:12.705Z,172.67
2018-06-02T13:23:40.392Z,130.80
2018-06-02T13:26:07.973Z,118.53
2018-06-02T13:28:35.556Z,108.43
2018-06-02T13:31:03.174Z,130.70
2018-06-02T13:33:30.832Z,115.33
2018-06-02T13:35:58.439Z,99.40
2018-06-02T13:38:26.125Z,84.43
2018-06-02T13:40:53.689Z,82.20
2018-06-02T13:43:21.284Z,81.40
2018-06-02T13:45:48.857Z,88.87
2018-06-02T13:48:16.464Z,71.13
2018-06-02T13:50:44.048Z,83.63
2018-06-02T13:53:11.653Z,67.83
2018-06-02T13:55:39.221Z,88.10
2018-06-02T13:58:06.829Z,96.83
2018-06-02T14:00:35.195Z,97.87
2018-06-02T14:03:03.584Z,110.63
2018-06-02T14:05:31.943Z,95.97
2018-06-02T14:07:59.511Z,103.70
2018-06-02T14:10:27.232Z,97.27
2018-06-02T14:12:54.791Z,126.80
2018-06-02T14:15:22.401Z,105.40
2018-06-02T14:17:50.743Z,106.27
2018-06-02T14:20:18.344Z,81.17
2018-06-02T14:22:45.955Z,86.13
2018-06-02T14:25:13.562Z,56.57
2018-06-02T14:27:41.140Z,57.80
2018-06-02T14:30:08.751Z,71.43
2018-06-02T14:32:36.313Z,64.93
2018-06-02T14:35:03.937Z,66.37
2018-06-02T14:37:31.507Z,61.10
2018-06-02T14:39:59.141Z,62.10
2018-06-02T14:42:27.534Z,92.50
2018-06-02T14:44:55.154Z,104.10
2018-06-02T14:47:22.757Z,138.27
2018-06-02T14:49:50.371Z,129.93
2018-06-02T14:52:17.963Z,122.60
2018-06-02T14:54:46.307Z,116.47
2018-06-02T14:57:13.927Z,122.87
2018-06-02T14:59:41.503Z,110.53
2018-06-02T15:02:09.104Z,117.83
2018-06-02T15:04:36.717Z,101.97
2018-06-02T15:07:04.370Z,115.20
2018-06-02T15:09:31.978Z,120.17
2018-06-02T15:11:59.551Z,109.37
2018-06-02T15:14:27.173Z,123.30
2018-06-02T15:16:54.752Z,155.43
2018-06-02T15:19:22.330Z,156.77
2018-06-02T15:21:49.941Z,169.80
2018-06-02T15:24:17.515Z,192.10
2018-06-02T15:26:45.125Z,228.30
2018-06-02T15:29:12.701Z,233.20
2018-06-02T15:31:40.312Z,237.17
2018-06-02T15:34:07.937Z,302.07
2018-06-02T15:36:35.901Z,306.60
2018-06-02T15:39:05.001Z,294.97
2018-06-02T15:41:32.701Z,311.27
2018-06-02T15:44:00.305Z,314.33
2018-06-02T15:46:27.883Z,311.00
2018-06-02T15:48:56.272Z,325.53
2018-06-02T15:51:23.885Z,313.90
2018-06-02T15:53:51.469Z,307.27
2018-06-02T15:56:19.852Z,317.00
2018-06-02T15:58:48.207Z,325.70
2018-06-02T16:01:15.809Z,307.13
2018-06-02T16:03:43.425Z,325.67
2018-06-02T16:06:10.996Z,298.03
2018-06-02T16:08:38.613Z,312.17
2018-06-02T16:11:06.208Z,298.90
2018-06-02T16:13:33.848Z,296.23
2018-06-02T16:16:01.428Z,287.83
2018-06-02T16:18:29.050Z,264.93
2018-06-02T16:20:56.637Z,268.47
2018-06-02T16:23:24.251Z,274.37
2018-06-02T16:25:52.675Z,292.20
2018-06-02T16:28:20.249Z,291.37
2018-06-02T16:30:47.867Z,286.23
2018-06-02T16:33:15.485Z,288.53
2018-06-02T16:35:43.097Z,284.70
2018-06-02T16:38:10.721Z,289.83
2018-06-02T16:40:38.339Z,298.00
2018-06-02T16:43:05.953Z,281.47
2018-06-02T16:45:33.539Z,291.57
2018-06-02T16:48:01.469Z,293.60
2018-06-02T16:50:29.064Z,279.10
2018-06-02T16:52:56.688Z,290.93
2018-06-02T16:55:24.261Z,305.33
2018-06-02T16:57:51.938Z,300.70
2018-06-02T17:00:19.587Z,315.63
2018-06-02T17:02:47.186Z,272.77
2018-06-02T17:05:14.838Z,317.07
2018-06-02T17:07:42.425Z,276.20
2018-06-02T17:10:10.092Z,285.70
2018-06-02T17:12:37.673Z,299.50
2018-06-02T17:15:05.291Z,313.87
2018-06-02T17:17:32.885Z,303.47
2018-06-02T17:20:00.560Z,308.17
2018-06-02T17:22:28.288Z,321.53
2018-06-02T17:24:56.037Z,291.97
2018-06-02T17:27:23.632Z,312.10
2018-06-02T17:29:51.216Z,325.83
2018-06-02T17:32:18.830Z,300.93
2018-06-02T17:34:46.453Z,320.23
2018-06-02T17:37:14.068Z,281.43
2018-06-02T17:39:41.661Z,292.00
2018-06-02T17:42:09.285Z,293.23
2018-06-02T17:44:36.943Z,306.57
2018-06-02T17:47:04.560Z,308.47
2018-06-02T17:49:32.188Z,300.37
2018-06-02T17:51:59.770Z,299.63
2018-06-02T17:54:27.364Z,328.67
2018-06-02T17:56:55.754Z,328.97
2018-06-02T17:59:23.384Z,313.93
2018-06-02T18:01:50.974Z,314.60
2018-06-02T18:04:19.315Z,303.10
2018-06-02T18:06:46.949Z,307.23
2018-06-02T18:09:14.584Z,310.93
2018-06-02T18:11:42.214Z,308.60
2018-06-02T18:14:09.799Z,299.70
2018-06-02T18:16:37.422Z,268.77
2018-06-02T18:19:05.021Z,293.27
2018-06-02T18:21:32.665Z,286.90
2018-06-02T18:24:01.016Z,301.03
2018-06-02T18:26:28.604Z,293.13
2018-06-02T18:28:56.991Z,276.63
2018-06-02T18:31:25.333Z,257.60
2018-06-02T18:33:52.955Z,238.43
2018-06-02T18:36:20.535Z,263.00
2018-06-02T18:38:48.155Z,265.33
2018-06-02T18:41:15.835Z,262.17
2018-06-02T18:43:43.452Z,257.83
2018-06-02T18:46:11.030Z,240.27
2018-06-02T18:48:38.653Z,228.17
2018-06-02T18:51:06.233Z,284.57
2018-06-02T18:53:34.660Z,327.80
2018-06-02T18:56:03.050Z,329.47
2018-06-02T18:58:30.654Z,268.33
2018-06-02T19:00:58.321Z,262.50
2018-06-02T19:03:25.933Z,278.17
2018-06-02T19:05:53.521Z,260.43
2018-06-02T19:08:21.139Z,219.30
2018-06-02T19:10:48.740Z,214.60
2018-06-02T19:13:16.374Z,248.20
2018-06-02T19:15:43.975Z,245.40
2018-06-02T19:18:11.591Z,246.10
2018-06-02T19:20:39.218Z,242.27
2018-06-02T19:23:06.800Z,249.90
2018-06-02T19:25:35.146Z,245.87
2018-06-02T19:28:02.781Z,249.97
2018-06-02T19:30:30.365Z,252.57
2018-06-02T19:32:57.953Z,234.80
2018-06-02T19:35:26.344Z,234.60
2018-06-02T19:37:53.948Z,242.37
2018-06-02T19:40:21.572Z,234.57
2018-06-02T19:42:49.960Z,234.00
2018-06-02T19:45:17.596Z,239.37
2018-06-02T19:47:45.950Z,232.33
2018-06-02T19:50:13.572Z,221.47
2018-06-02T19:52:41.193Z,223.83
2018-06-02T19:55:08.835Z,227.20
2018-06-02T19:57:36.422Z,218.00
2018-06-02T20:00:04.002Z,227.57
2018-06-02T20:02:32.393Z,228.07
2018-06-02T20:04:59.977Z,186.10
2018-06-02T20:07:27.594Z,196.50
2018-06-02T20:09:55.951Z,224.40
2018-06-02T20:12:23.623Z,279.83
2018-06-02T20:14:51.237Z,270.30
2018-06-02T20:17:18.853Z,285.97
2018-06-02T20:19:46.436Z,276.03
2018-06-02T20:22:14.826Z,279.77
2018-06-02T20:27:16.273Z,273.60
2018-06-02T20:29:43.852Z,273.07
2018-06-02T20:32:11.474Z,258.20
2018-06-02T20:34:39.069Z,269.63
2018-06-02T20:37:06.708Z,263.80
2018-06-02T20:39:35.313Z,281.43
2018-06-02T20:42:03.664Z,269.03
2018-06-02T20:44:31.283Z,264.20
2018-06-02T20:46:58.866Z,252.07
2018-06-02T20:49:26.479Z,212.67
2018-06-02T20:51:54.160Z,197.90
2018-06-02T20:54:21.763Z,182.50
2018-06-02T20:56:49.373Z,166.20
2018-06-02T20:59:17.006Z,161.33
2018-06-02T21:01:45.362Z,174.50
2018-06-02T21:04:12.944Z,175.43
2018-06-02T21:06:40.563Z,158.93
2018-06-02T21:09:08.136Z,150.47
2018-06-02T21:11:35.787Z,142.63
2018-06-02T21:14:03.363Z,129.07
2018-06-02T21:16:30.982Z,176.00
2018-06-02T21:18:58.573Z,230.17
2018-06-02T21:21:26.200Z,232.27
2018-06-02T21:23:53.796Z,231.27
2018-06-02T21:26:21.417Z,235.40
2018-06-02T21:28:48.997Z,238.80
2018-06-02T21:31:16.627Z,217.07
2018-06-02T21:33:44.223Z,229.13
2018-06-02T21:36:11.812Z,236.80
2018-06-02T21:38:39.445Z,246.20
2018-06-02T21:41:07.034Z,226.50
2018-06-02T21:43:34.657Z,225.63
2018-06-02T21:46:02.234Z,207.77
2018-06-02T21:48:29.860Z,218.33
2018-06-02T21:50:58.255Z,226.40
2018-06-02T21:53:25.872Z,224.57
2018-06-02T21:55:53.454Z,223.67
2018-06-02T21:58:21.076Z,219.53
2018-06-02T22:00:48.659Z,234.37
2018-06-02T22:03:16.244Z,219.23
2018-06-02T22:05:44.633Z,221.23
2018-06-02T22:08:12.981Z,212.87
2018-06-02T22:10:40.606Z,186.87
2018-06-02T22:13:08.248Z,179.57
2018-06-02T22:15:35.844Z,177.10
2018-06-02T22:18:03.568Z,139.67
2018-06-02T22:20:33.299Z,152.03
2018-06-02T22:23:01.129Z,158.23
2018-06-02T22:25:29.659Z,147.97
2018-06-02T22:27:57.361Z,138.83
2018-06-02T22:30:25.039Z,155.67
2018-06-02T22:32:53.516Z,368.33
2018-06-02T22:35:21.368Z,370.73
2018-06-02T22:37:48.953Z,348.10
2018-06-02T22:40:17.341Z,332.30
2018-06-02T22:42:45.003Z,295.63
2018-06-02T22:45:13.044Z,272.27
2018-06-02T22:47:41.838Z,280.07
2018-06-02T22:50:09.553Z,253.10
2018-06-02T22:52:37.163Z,298.10
2018-06-02T22:55:04.795Z,355.93
2018-06-02T22:57:32.432Z,338.00
2018-06-02T23:00:00.052Z,347.77
2018-06-02T23:02:28.408Z,416.37
2018-06-02T23:04:56.084Z,451.87
2018-06-02T23:07:23.713Z,471.87
2018-06-02T23:09:51.341Z,369.80
2018-06-02T23:12:18.937Z,318.33
2018-06-02T23:14:46.513Z,305.10
2018-06-02T23:17:14.147Z,319.97
2018-06-02T23:19:41.771Z,279.57
2018-06-02T23:25:39.872Z,306.70
2018-06-02T23:28:08.539Z,311.13
2018-06-02T23:30:36.984Z,286.20
2018-06-02T23:33:05.885Z,309.43
2018-06-02T23:35:34.388Z,327.80
2018-06-02T23:38:02.915Z,432.97
2018-06-02T23:40:31.404Z,417.70
2018-06-02T23:43:00.047Z,432.33
2018-06-02T23:45:28.517Z,399.13
2018-06-02T23:47:57.044Z,375.07
2018-06-02T23:50:25.823Z,355.33
2018-06-02T23:52:54.070Z,369.27
2018-06-02T23:55:22.605Z,397.87
2018-06-02T23:57:51.145Z,401.00
